createdAt,value
2022-12-17T00:03:37.402Z,-3.90
2022-12-17T00:07:52.975Z,-3.90
2022-12-17T00:12:06.943Z,-3.90
2022-12-17T00:16:20.472Z,-3.80
2022-12-17T00:20:33.391Z,-3.90
2022-12-17T00:24:48.563Z,-3.90
2022-12-17T00:29:01.335Z,-3.90
2022-12-17T00:33:14.968Z,-4.00
2022-12-17T00:37:29.115Z,-3.90
2022-12-17T00:41:44.437Z,-4.00
2022-12-17T00:45:57.058Z,-3.90
2022-12-17T00:50:11.366Z,-4.00
2022-12-17T00:54:24.169Z,-4.00
2022-12-17T00:58:39.819Z,-3.90
2022-12-17T01:02:52.522Z,-3.90
2022-12-17T01:07:05.345Z,-3.80
2022-12-17T01:11:21.143Z,-3.80
2022-12-17T01:15:36.682Z,-3.80
2022-12-17T01:19:49.604Z,-3.80
2022-12-17T01:24:02.199Z,-3.70
2022-12-17T01:28:15.044Z,-3.70
2022-12-17T01:32:30.302Z,-3.70
2022-12-17T01:36:42.919Z,-3.70
2022-12-17T01:40:55.524Z,-3.80
2022-12-17T01:45:11.152Z,-3.80
2022-12-17T01:49:28.179Z,-3.80
2022-12-17T01:53:46.273Z,-3.90
2022-12-17T01:57:58.915Z,-4.00
2022-12-17T02:02:21.029Z,-4.10
2022-12-17T02:06:42.530Z,-4.20
2022-12-17T02:11:03.093Z,-4.20
2022-12-17T02:15:25.336Z,-4.20
2022-12-17T02:19:55.153Z,-4.20
2022-12-17T02:24:27.221Z,-4.30
2022-12-17T02:28:43.450Z,-4.30
2022-12-17T02:33:01.842Z,-4.30
2022-12-17T02:37:15.101Z,-4.40
2022-12-17T02:41:32.558Z,-4.30
2022-12-17T02:45:49.639Z,-4.30
2022-12-17T02:50:03.234Z,-4.20
2022-12-17T02:54:21.237Z,-4.20
2022-12-17T02:58:34.010Z,-4.10
2022-12-17T03:02:49.692Z,-4.10
2022-12-17T03:07:02.377Z,-4.00
2022-12-17T03:11:15.288Z,-4.00
2022-12-17T03:15:27.970Z,-4.00
2022-12-17T03:19:42.938Z,-4.10
2022-12-17T03:23:55.818Z,-4.10
2022-12-17T03:28:14.132Z,-4.10
2022-12-17T03:32:26.872Z,-4.20
2022-12-17T03:36:42.345Z,-4.20
2022-12-17T03:40:54.885Z,-4.20
2022-12-17T03:45:07.471Z,-4.20
2022-12-17T03:49:20.332Z,-4.10
2022-12-17T03:53:35.928Z,-4.10
2022-12-17T03:57:48.740Z,-4.10
2022-12-17T04:02:01.434Z,-4.10
2022-12-17T04:06:14.455Z,-4.10
2022-12-17T04:10:29.731Z,-4.10
2022-12-17T04:14:42.432Z,-4.10
2022-12-17T04:18:55.077Z,-4.10
2022-12-17T04:23:07.644Z,-4.20
2022-12-17T04:27:22.905Z,-4.30
2022-12-17T04:31:35.697Z,-4.50
2022-12-17T04:35:48.366Z,-4.80
2022-12-17T04:40:00.996Z,-5.00
2022-12-17T04:44:16.163Z,-5.30
2022-12-17T04:48:28.948Z,-5.50
2022-12-17T04:52:41.542Z,-5.70
2022-12-17T04:56:54.096Z,-5.90
2022-12-17T05:01:10.953Z,-6.00
2022-12-17T05:05:24.995Z,-6.20
2022-12-17T05:09:37.576Z,-6.30
2022-12-17T05:13:50.168Z,-6.30
2022-12-17T05:18:20.948Z,-6.40
2022-12-17T05:22:33.646Z,-6.40
2022-12-17T05:26:46.170Z,-6.50
2022-12-17T05:30:58.983Z,-6.60
2022-12-17T05:35:14.150Z,-6.80
2022-12-17T05:39:27.097Z,-6.80
2022-12-17T05:43:40.015Z,-7.00
2022-12-17T05:47:52.703Z,-7.10
2022-12-17T05:52:07.926Z,-7.10
2022-12-17T05:56:21.060Z,-7.30
2022-12-17T06:00:33.962Z,-7.40
2022-12-17T06:04:46.802Z,-7.50
2022-12-17T06:09:01.907Z,-7.60
2022-12-17T06:13:14.480Z,-7.80
2022-12-17T06:17:27.184Z,-7.90
2022-12-17T06:21:40.368Z,-8.00
2022-12-17T06:25:55.478Z,-8.00
2022-12-17T06:30:08.056Z,-8.10
2022-12-17T06:34:20.650Z,-8.10
2022-12-17T06:38:33.423Z,-8.20
2022-12-17T06:42:48.755Z,-8.30
2022-12-17T06:47:01.480Z,-8.40
2022-12-17T06:51:14.172Z,-8.50
2022-12-17T06:55:26.890Z,-8.60
2022-12-17T06:59:42.057Z,-8.70
2022-12-17T07:03:54.683Z,-8.80
2022-12-17T07:08:13.097Z,-8.80
2022-12-17T07:12:25.790Z,-8.80
2022-12-17T07:16:40.983Z,-8.80
2022-12-17T07:20:53.655Z,-8.70
2022-12-17T07:25:06.264Z,-8.60
2022-12-17T07:29:19.156Z,-8.50
2022-12-17T07:33:34.530Z,-8.50
2022-12-17T07:37:47.322Z,-8.50
2022-12-17T07:41:59.903Z,-8.50
2022-12-17T07:46:12.839Z,-8.50
2022-12-17T07:50:28.094Z,-8.40
2022-12-17T07:54:40.724Z,-8.30
2022-12-17T07:58:56.112Z,-8.20
2022-12-17T08:03:13.536Z,-7.90
2022-12-17T08:07:28.772Z,-7.50
2022-12-17T08:11:41.641Z,-7.10
2022-12-17T08:15:55.264Z,-6.80
2022-12-17T08:20:08.166Z,-6.40
2022-12-17T08:24:23.596Z,-6.10
2022-12-17T08:28:51.676Z,-5.70
2022-12-17T08:33:04.636Z,-5.40
2022-12-17T08:37:17.189Z,-5.10
2022-12-17T08:41:32.403Z,-4.80
2022-12-17T08:45:45.149Z,-4.60
2022-12-17T08:49:57.771Z,-4.30
2022-12-17T08:54:10.399Z,-4.10
2022-12-17T08:58:26.268Z,-3.80
2022-12-17T09:02:39.665Z,-3.50
2022-12-17T09:06:52.310Z,-3.20
2022-12-17T09:11:05.302Z,-2.70
2022-12-17T09:15:22.118Z,-2.40
2022-12-17T09:19:34.825Z,-2.00
2022-12-17T09:23:47.356Z,-1.50
2022-12-17T09:27:59.960Z,-1.00
2022-12-17T09:32:15.501Z,-0.80
2022-12-17T09:36:28.138Z,-0.70
2022-12-17T09:40:41.015Z,-0.20
2022-12-17T09:45:03.307Z,-0.10
2022-12-17T09:49:31.094Z,0.30
2022-12-17T09:53:52.054Z,0.80
2022-12-17T09:58:17.834Z,0.90
2022-12-17T10:02:36.044Z,1.40
2022-12-17T10:06:52.535Z,1.90
2022-12-17T10:11:05.201Z,2.00
2022-12-17T10:15:18.792Z,2.40
2022-12-17T10:19:43.909Z,2.80
2022-12-17T10:23:59.749Z,3.10
2022-12-17T10:28:18.209Z,2.90
2022-12-17T10:32:38.972Z,2.90
2022-12-17T10:36:51.732Z,3.00
2022-12-17T10:41:06.984Z,3.40
2022-12-17T10:45:36.979Z,3.70
2022-12-17T10:49:58.075Z,4.30
2022-12-17T10:54:34.186Z,4.60
2022-12-17T10:58:50.960Z,4.90
2022-12-17T11:03:04.326Z,5.00
2022-12-17T11:07:17.010Z,5.20
2022-12-17T11:11:32.034Z,5.50
2022-12-17T11:15:53.573Z,5.80
2022-12-17T11:20:12.263Z,6.20
2022-12-17T11:24:35.407Z,6.30
2022-12-17T11:28:51.580Z,6.40
2022-12-17T11:33:21.173Z,6.60
2022-12-17T11:37:37.196Z,6.70
2022-12-17T11:42:09.528Z,6.90
2022-12-17T11:46:38.503Z,6.50
2022-12-17T11:51:03.040Z,6.80
2022-12-17T11:55:30.810Z,6.80
2022-12-17T11:59:54.034Z,6.60
2022-12-17T12:04:25.740Z,6.90
2022-12-17T12:08:54.819Z,7.10
2022-12-17T12:13:22.777Z,7.30
2022-12-17T12:17:57.208Z,7.60
2022-12-17T12:22:21.299Z,8.00
2022-12-17T12:26:46.135Z,8.40
2022-12-17T12:31:14.183Z,8.60
2022-12-17T12:35:35.817Z,9.10
2022-12-17T12:39:55.616Z,9.40
2022-12-17T12:44:17.651Z,9.70
2022-12-17T12:48:49.428Z,10.00
2022-12-17T12:53:02.750Z,10.10
2022-12-17T12:57:15.384Z,10.10
2022-12-17T13:01:31.555Z,9.90
2022-12-17T13:05:39.660Z,10.00
2022-12-17T13:09:52.799Z,9.30
2022-12-17T13:13:58.540Z,9.80
2022-12-17T13:18:17.910Z,10.00
2022-12-17T13:22:36.413Z,10.20
2022-12-17T13:26:47.805Z,10.00
2022-12-17T13:30:48.957Z,9.20
2022-12-17T13:35:10.641Z,9.20
2022-12-17T13:39:30.263Z,9.10
2022-12-17T13:43:36.417Z,8.70
2022-12-17T13:47:38.654Z,8.70
2022-12-17T13:51:41.541Z,8.60
2022-12-17T13:55:42.924Z,8.40
2022-12-17T13:59:43.400Z,8.30
2022-12-17T14:04:08.898Z,8.10
2022-12-17T14:08:19.516Z,7.90
2022-12-17T14:12:26.133Z,7.40
2022-12-17T14:16:26.631Z,7.00
2022-12-17T14:20:31.921Z,6.50
2022-12-17T14:24:35.563Z,6.10
2022-12-17T14:28:38.909Z,5.70
2022-12-17T14:32:40.144Z,5.30
2022-12-17T14:36:43.863Z,4.80
2022-12-17T14:40:46.686Z,4.30
2022-12-17T14:44:55.486Z,3.90
2022-12-17T14:49:06.024Z,3.40
2022-12-17T14:53:27.500Z,2.90
2022-12-17T14:57:30.234Z,2.30
2022-12-17T15:01:30.517Z,1.70
2022-12-17T15:05:30.704Z,1.10
2022-12-17T15:09:30.925Z,0.30
2022-12-17T15:13:33.745Z,-0.40
2022-12-17T15:17:33.842Z,-1.00
2022-12-17T15:21:34.650Z,-1.50
2022-12-17T15:25:40.119Z,-2.00
2022-12-17T15:29:47.271Z,-2.30
2022-12-17T15:33:47.331Z,-2.70
2022-12-17T15:37:47.454Z,-2.90
2022-12-17T15:42:00.029Z,-3.20
2022-12-17T15:46:04.371Z,-3.40
2022-12-17T15:50:04.839Z,-3.70
2022-12-17T15:54:04.934Z,-3.90
2022-12-17T15:58:05.128Z,-4.10
2022-12-17T16:02:08.061Z,-4.30
2022-12-17T16:06:09.151Z,-4.40
2022-12-17T16:10:10.795Z,-4.60
2022-12-17T16:14:10.934Z,-4.80
2022-12-17T16:18:13.637Z,-5.00
2022-12-17T16:22:13.730Z,-5.10
2022-12-17T16:26:14.822Z,-5.20
2022-12-17T16:30:17.046Z,-5.30
2022-12-17T16:34:20.139Z,-5.50
2022-12-17T16:38:20.788Z,-5.60
2022-12-17T16:42:20.884Z,-5.80
2022-12-17T16:46:31.081Z,-5.90
2022-12-17T16:50:33.994Z,-6.00
2022-12-17T16:54:35.728Z,-6.00
2022-12-17T16:58:36.307Z,-6.20
2022-12-17T17:02:36.759Z,-6.30
2022-12-17T17:06:42.527Z,-6.40
2022-12-17T17:10:42.846Z,-6.10
2022-12-17T17:14:44.325Z,-5.70
2022-12-17T17:18:44.559Z,-5.70
2022-12-17T17:22:47.326Z,-6.00
2022-12-17T17:26:47.617Z,-6.30
2022-12-17T17:30:47.706Z,-6.50
2022-12-17T17:34:47.853Z,-6.80
2022-12-17T17:38:53.394Z,-6.90
2022-12-17T17:42:53.583Z,-7.00
2022-12-17T17:46:53.892Z,-7.20
2022-12-17T17:51:04.348Z,-7.30
2022-12-17T17:55:08.401Z,-7.50
2022-12-17T17:59:11.611Z,-7.60
2022-12-17T18:03:11.771Z,-7.60
2022-12-17T18:07:28.147Z,-7.70
2022-12-17T18:11:34.070Z,-7.80
2022-12-17T18:15:34.116Z,-7.90
2022-12-17T18:19:34.214Z,-7.90
2022-12-17T18:23:34.408Z,-7.90
2022-12-17T18:27:37.137Z,-8.00
2022-12-17T18:31:37.449Z,-8.10
2022-12-17T18:35:38.291Z,-8.10
2022-12-17T18:39:39.132Z,-8.10
2022-12-17T18:43:43.253Z,-8.20
2022-12-17T18:47:44.738Z,-8.30
2022-12-17T18:51:48.877Z,-8.40
2022-12-17T18:55:48.943Z,-8.50
2022-12-17T18:59:52.288Z,-8.60
2022-12-17T19:03:52.675Z,-8.60
2022-12-17T19:07:52.908Z,-8.70
2022-12-17T19:11:54.741Z,-8.80
2022-12-17T19:15:57.606Z,-8.80
2022-12-17T19:19:57.860Z,-8.90
2022-12-17T19:24:00.992Z,-8.90
2022-12-17T19:28:01.265Z,-9.00
2022-12-17T19:32:04.102Z,-9.10
2022-12-17T19:36:08.802Z,-9.20
2022-12-17T19:40:11.072Z,-9.30
2022-12-17T19:44:15.771Z,-9.30
2022-12-17T19:48:19.130Z,-9.40
2022-12-17T19:52:19.420Z,-9.50
2022-12-17T19:56:23.443Z,-9.60
2022-12-17T20:00:23.857Z,-9.60
2022-12-17T20:04:26.636Z,-9.70
2022-12-17T20:08:26.867Z,-9.70
2022-12-17T20:12:26.943Z,-9.70
2022-12-17T20:16:27.220Z,-9.80
2022-12-17T20:20:29.983Z,-9.90
2022-12-17T20:24:31.970Z,-9.90
2022-12-17T20:28:32.477Z,-9.90
2022-12-17T20:32:32.648Z,-10.00
2022-12-17T20:36:35.947Z,-10.00
2022-12-17T20:40:36.163Z,-10.10
2022-12-17T20:44:36.618Z,-10.20
2022-12-17T20:48:37.464Z,-10.30
2022-12-17T20:52:40.664Z,-10.30
2022-12-17T20:56:42.318Z,-10.30
2022-12-17T21:00:42.808Z,-10.40
2022-12-17T21:04:43.128Z,-10.30
2022-12-17T21:08:50.212Z,-10.30
2022-12-17T21:13:03.477Z,-10.20
2022-12-17T21:17:04.942Z,-10.10
2022-12-17T21:21:09.468Z,-9.90
2022-12-17T21:25:12.951Z,-9.80
2022-12-17T21:29:14.606Z,-9.70
2022-12-17T21:33:14.699Z,-9.60
2022-12-17T21:37:15.069Z,-9.60
2022-12-17T21:41:21.872Z,-9.50
2022-12-17T21:45:21.941Z,-9.50
2022-12-17T21:49:22.321Z,-9.40
2022-12-17T21:53:23.355Z,-9.40
2022-12-17T21:57:26.183Z,-9.30
2022-12-17T22:01:29.290Z,-9.20
2022-12-17T22:05:29.576Z,-9.20
2022-12-17T22:09:45.104Z,-9.20
2022-12-17T22:14:15.534Z,-9.30
2022-12-17T22:18:19.290Z,-9.20
2022-12-17T22:22:19.377Z,-9.10
2022-12-17T22:26:21.635Z,-9.00
2022-12-17T22:30:37.032Z,-8.90
2022-12-17T22:35:01.388Z,-8.80
2022-12-17T22:41:55.876Z,-8.80
2022-12-17T22:44:42.208Z,-8.60
2022-12-17T22:47:55.255Z,-8.50
2022-12-17T22:51:55.342Z,-8.40
2022-12-17T22:55:56.282Z,-8.30
2022-12-17T22:59:57.246Z,-8.20
2022-12-17T23:04:02.459Z,-8.20
2022-12-17T23:08:03.516Z,-8.10
2022-12-17T23:12:23.725Z,-8.10
2022-12-17T23:16:24.796Z,-8.00
2022-12-17T23:20:29.709Z,-7.90
2022-12-17T23:24:29.819Z,-7.80
2022-12-17T23:28:30.079Z,-7.80
2022-12-17T23:32:30.412Z,-7.70
2022-12-17T23:36:33.187Z,-7.70
2022-12-17T23:40:33.258Z,-7.60
2022-12-17T23:44:33.368Z,-7.50
2022-12-17T23:48:34.805Z,-7.40
2022-12-17T23:52:37.542Z,-7.30
2022-12-17T23:56:38.169Z,-7.20
